sensor_id;sensor_type;location;lat;lon;timestamp;P1;durP1;ratioP1;P2;durP2;ratioP2
69789;SDS011;57064;52.046;4.800;2023-04-12T00:01:36;9.68;;;2.95;;
69789;SDS011;57064;52.046;4.800;2023-04-12T00:04:02;9.75;;;2.70;;
69789;SDS011;57064;52.046;4.800;2023-04-12T00:06:28;11.52;;;2.92;;
69789;SDS011;57064;52.046;4.800;2023-04-12T00:08:59;8.43;;;3.25;;
69789;SDS011;57064;52.046;4.800;2023-04-12T00:11:27;5.53;;;2.60;;
69789;SDS011;57064;52.046;4.800;2023-04-12T00:13:55;6.18;;;2.70;;
69789;SDS011;57064;52.046;4.800;2023-04-12T00:16:21;7.13;;;2.90;;
69789;SDS011;57064;52.046;4.800;2023-04-12T00:18:48;7.47;;;3.17;;
69789;SDS011;57064;52.046;4.800;2023-04-12T00:21:15;6.10;;;2.95;;
69789;SDS011;57064;52.046;4.800;2023-04-12T00:23:43;9.60;;;3.22;;
69789;SDS011;57064;52.046;4.800;2023-04-12T00:26:13;6.85;;;3.03;;
69789;SDS011;57064;52.046;4.800;2023-04-12T00:28:40;6.70;;;3.25;;
69789;SDS011;57064;52.046;4.800;2023-04-12T00:31:06;9.07;;;3.95;;
69789;SDS011;57064;52.046;4.800;2023-04-12T00:33:33;7.75;;;2.90;;
69789;SDS011;57064;52.046;4.800;2023-04-12T00:35:59;12.40;;;3.42;;
69789;SDS011;57064;52.046;4.800;2023-04-12T00:38:28;8.63;;;3.20;;
69789;SDS011;57064;52.046;4.800;2023-04-12T00:40:56;8.90;;;2.80;;
69789;SDS011;57064;52.046;4.800;2023-04-12T00:43:22;7.68;;;2.97;;
69789;SDS011;57064;52.046;4.800;2023-04-12T00:45:51;10.30;;;3.35;;
69789;SDS011;57064;52.046;4.800;2023-04-12T00:48:21;6.20;;;2.92;;
69789;SDS011;57064;52.046;4.800;2023-04-12T00:50:47;6.18;;;2.30;;
69789;SDS011;57064;52.046;4.800;2023-04-12T00:53:14;7.63;;;2.42;;
69789;SDS011;57064;52.046;4.800;2023-04-12T00:55:42;9.32;;;2.63;;
69789;SDS011;57064;52.046;4.800;2023-04-12T00:58:09;8.85;;;2.55;;
69789;SDS011;57064;52.046;4.800;2023-04-12T01:00:35;6.22;;;2.20;;
69789;SDS011;57064;52.046;4.800;2023-04-12T01:03:01;5.82;;;2.08;;
69789;SDS011;57064;52.046;4.800;2023-04-12T01:05:29;6.07;;;2.00;;
69789;SDS011;57064;52.046;4.800;2023-04-12T01:08:14;6.13;;;2.45;;
69789;SDS011;57064;52.046;4.800;2023-04-12T01:11:04;4.65;;;2.20;;
69789;SDS011;57064;52.046;4.800;2023-04-12T01:13:48;3.45;;;1.67;;
69789;SDS011;57064;52.046;4.800;2023-04-12T01:16:41;5.80;;;2.38;;
69789;SDS011;57064;52.046;4.800;2023-04-12T01:27:48;5.25;;;1.58;;
69789;SDS011;57064;52.046;4.800;2023-04-12T01:30:18;5.85;;;1.60;;
69789;SDS011;57064;52.046;4.800;2023-04-12T01:32:50;2.97;;;1.60;;
69789;SDS011;57064;52.046;4.800;2023-04-12T01:35:17;3.10;;;1.42;;
69789;SDS011;57064;52.046;4.800;2023-04-12T01:37:45;5.43;;;1.52;;
69789;SDS011;57064;52.046;4.800;2023-04-12T01:40:12;7.68;;;2.42;;
69789;SDS011;57064;52.046;4.800;2023-04-12T01:42:38;5.13;;;1.55;;
69789;SDS011;57064;52.046;4.800;2023-04-12T01:45:04;4.35;;;1.38;;
69789;SDS011;57064;52.046;4.800;2023-04-12T01:47:34;4.90;;;1.58;;
69789;SDS011;57064;52.046;4.800;2023-04-12T01:52:44;4.65;;;1.70;;
69789;SDS011;57064;52.046;4.800;2023-04-12T01:55:18;3.28;;;1.73;;
69789;SDS011;57064;52.046;4.800;2023-04-12T01:57:46;4.22;;;1.73;;
69789;SDS011;57064;52.046;4.800;2023-04-12T02:00:14;6.43;;;1.75;;
69789;SDS011;57064;52.046;4.800;2023-04-12T02:02:43;6.50;;;1.65;;
69789;SDS011;57064;52.046;4.800;2023-04-12T02:05:09;6.35;;;1.63;;
69789;SDS011;57064;52.046;4.800;2023-04-12T02:07:36;5.60;;;2.13;;
69789;SDS011;57064;52.046;4.800;2023-04-12T02:10:02;5.35;;;2.05;;
69789;SDS011;57064;52.046;4.800;2023-04-12T02:12:29;4.05;;;1.90;;
69789;SDS011;57064;52.046;4.800;2023-04-12T02:14:55;4.88;;;1.70;;
69789;SDS011;57064;52.046;4.800;2023-04-12T02:17:21;5.72;;;1.83;;
69789;SDS011;57064;52.046;4.800;2023-04-12T02:19:47;6.47;;;1.75;;
69789;SDS011;57064;52.046;4.800;2023-04-12T02:22:13;4.15;;;1.67;;
69789;SDS011;57064;52.046;4.800;2023-04-12T02:24:39;7.68;;;1.60;;
69789;SDS011;57064;52.046;4.800;2023-04-12T02:27:05;4.30;;;1.48;;
69789;SDS011;57064;52.046;4.800;2023-04-12T02:29:31;5.35;;;1.63;;
69789;SDS011;57064;52.046;4.800;2023-04-12T02:31:57;5.80;;;1.98;;
69789;SDS011;57064;52.046;4.800;2023-04-12T02:34:23;5.28;;;2.63;;
69789;SDS011;57064;52.046;4.800;2023-04-12T02:36:50;5.95;;;2.00;;
69789;SDS011;57064;52.046;4.800;2023-04-12T02:39:16;3.55;;;1.80;;
69789;SDS011;57064;52.046;4.800;2023-04-12T02:41:42;4.85;;;1.90;;
69789;SDS011;57064;52.046;4.800;2023-04-12T02:44:08;6.38;;;1.98;;
69789;SDS011;57064;52.046;4.800;2023-04-12T02:46:34;4.57;;;2.03;;
69789;SDS011;57064;52.046;4.800;2023-04-12T02:49:01;6.82;;;1.77;;
69789;SDS011;57064;52.046;4.800;2023-04-12T02:51:27;3.97;;;2.03;;
69789;SDS011;57064;52.046;4.800;2023-04-12T02:53:53;7.57;;;2.30;;
69789;SDS011;57064;52.046;4.800;2023-04-12T02:56:19;5.03;;;1.83;;
69789;SDS011;57064;52.046;4.800;2023-04-12T02:58:45;7.47;;;1.95;;
69789;SDS011;57064;52.046;4.800;2023-04-12T03:01:12;6.80;;;2.45;;
69789;SDS011;57064;52.046;4.800;2023-04-12T03:03:38;7.30;;;2.20;;
69789;SDS011;57064;52.046;4.800;2023-04-12T03:06:04;3.83;;;2.10;;
69789;SDS011;57064;52.046;4.800;2023-04-12T03:08:32;5.95;;;2.22;;
69789;SDS011;57064;52.046;4.800;2023-04-12T03:10:58;3.40;;;1.65;;
69789;SDS011;57064;52.046;4.800;2023-04-12T03:13:25;4.85;;;1.90;;
69789;SDS011;57064;52.046;4.800;2023-04-12T03:15:53;6.22;;;2.67;;
69789;SDS011;57064;52.046;4.800;2023-04-12T03:18:21;4.85;;;2.20;;
69789;SDS011;57064;52.046;4.800;2023-04-12T03:20:48;5.57;;;2.10;;
69789;SDS011;57064;52.046;4.800;2023-04-12T03:23:14;5.47;;;2.00;;
69789;SDS011;57064;52.046;4.800;2023-04-12T03:25:40;3.63;;;2.00;;
69789;SDS011;57064;52.046;4.800;2023-04-12T03:28:07;7.72;;;2.13;;
69789;SDS011;57064;52.046;4.800;2023-04-12T03:30:33;6.25;;;2.15;;
69789;SDS011;57064;52.046;4.800;2023-04-12T03:32:59;4.07;;;2.67;;
69789;SDS011;57064;52.046;4.800;2023-04-12T03:35:25;11.18;;;2.30;;
69789;SDS011;57064;52.046;4.800;2023-04-12T03:37:51;5.25;;;1.90;;
69789;SDS011;57064;52.046;4.800;2023-04-12T03:40:17;4.40;;;2.08;;
69789;SDS011;57064;52.046;4.800;2023-04-12T03:42:43;6.03;;;2.30;;
69789;SDS011;57064;52.046;4.800;2023-04-12T03:45:14;5.80;;;2.38;;
69789;SDS011;57064;52.046;4.800;2023-04-12T03:47:40;5.57;;;2.70;;
69789;SDS011;57064;52.046;4.800;2023-04-12T03:50:07;5.03;;;2.50;;
69789;SDS011;57064;52.046;4.800;2023-04-12T03:52:34;5.45;;;2.95;;
69789;SDS011;57064;52.046;4.800;2023-04-12T03:55:02;8.27;;;2.53;;
69789;SDS011;57064;52.046;4.800;2023-04-12T03:57:30;3.95;;;2.45;;
69789;SDS011;57064;52.046;4.800;2023-04-12T03:59:56;4.80;;;2.30;;
69789;SDS011;57064;52.046;4.800;2023-04-12T04:02:22;5.82;;;2.92;;
69789;SDS011;57064;52.046;4.800;2023-04-12T04:04:48;5.93;;;2.60;;
69789;SDS011;57064;52.046;4.800;2023-04-12T04:07:15;8.23;;;2.95;;
69789;SDS011;57064;52.046;4.800;2023-04-12T04:09:41;5.10;;;2.63;;
69789;SDS011;57064;52.046;4.800;2023-04-12T04:12:07;5.07;;;3.10;;
69789;SDS011;57064;52.046;4.800;2023-04-12T04:14:33;8.23;;;3.22;;
69789;SDS011;57064;52.046;4.800;2023-04-12T04:17:00;5.97;;;3.38;;
69789;SDS011;57064;52.046;4.800;2023-04-12T04:19:26;4.72;;;2.90;;
69789;SDS011;57064;52.046;4.800;2023-04-12T04:21:52;7.50;;;2.95;;
69789;SDS011;57064;52.046;4.800;2023-04-12T04:24:20;4.70;;;3.00;;
69789;SDS011;57064;52.046;4.800;2023-04-12T04:26:46;8.43;;;3.03;;
69789;SDS011;57064;52.046;4.800;2023-04-12T04:29:14;3.83;;;2.42;;
69789;SDS011;57064;52.046;4.800;2023-04-12T04:31:40;7.28;;;3.38;;
69789;SDS011;57064;52.046;4.800;2023-04-12T04:34:06;6.63;;;3.80;;
69789;SDS011;57064;52.046;4.800;2023-04-12T04:36:33;8.88;;;3.83;;
69789;SDS011;57064;52.046;4.800;2023-04-12T04:39:00;5.50;;;2.95;;
69789;SDS011;57064;52.046;4.800;2023-04-12T04:41:26;6.72;;;2.88;;
69789;SDS011;57064;52.046;4.800;2023-04-12T04:43:53;4.57;;;2.50;;
69789;SDS011;57064;52.046;4.800;2023-04-12T04:46:19;5.65;;;3.42;;
69789;SDS011;57064;52.046;4.800;2023-04-12T04:48:49;6.88;;;2.53;;
69789;SDS011;57064;52.046;4.800;2023-04-12T04:51:19;7.22;;;2.75;;
69789;SDS011;57064;52.046;4.800;2023-04-12T04:53:45;8.15;;;3.30;;
69789;SDS011;57064;52.046;4.800;2023-04-12T04:56:11;5.78;;;3.05;;
69789;SDS011;57064;52.046;4.800;2023-04-12T04:58:37;9.48;;;3.20;;
69789;SDS011;57064;52.046;4.800;2023-04-12T05:01:03;5.32;;;3.15;;
69789;SDS011;57064;52.046;4.800;2023-04-12T05:03:31;8.00;;;3.63;;
69789;SDS011;57064;52.046;4.800;2023-04-12T05:05:58;5.75;;;3.50;;
69789;SDS011;57064;52.046;4.800;2023-04-12T05:08:27;5.95;;;3.10;;
69789;SDS011;57064;52.046;4.800;2023-04-12T05:10:54;5.53;;;3.25;;
69789;SDS011;57064;52.046;4.800;2023-04-12T05:13:20;5.95;;;3.45;;
69789;SDS011;57064;52.046;4.800;2023-04-12T05:15:48;5.75;;;3.38;;
69789;SDS011;57064;52.046;4.800;2023-04-12T05:18:14;9.50;;;4.45;;
69789;SDS011;57064;52.046;4.800;2023-04-12T05:20:42;6.68;;;3.78;;
69789;SDS011;57064;52.046;4.800;2023-04-12T05:23:08;5.85;;;3.78;;
69789;SDS011;57064;52.046;4.800;2023-04-12T05:25:34;7.88;;;4.35;;
69789;SDS011;57064;52.046;4.800;2023-04-12T05:28:00;10.55;;;3.65;;
69789;SDS011;57064;52.046;4.800;2023-04-12T05:30:26;6.72;;;4.22;;
69789;SDS011;57064;52.046;4.800;2023-04-12T05:32:53;12.60;;;4.55;;
69789;SDS011;57064;52.046;4.800;2023-04-12T05:35:19;9.60;;;4.75;;
69789;SDS011;57064;52.046;4.800;2023-04-12T05:37:45;11.68;;;5.70;;
69789;SDS011;57064;52.046;4.800;2023-04-12T05:40:11;11.07;;;5.65;;
69789;SDS011;57064;52.046;4.800;2023-04-12T05:42:37;8.98;;;5.07;;
69789;SDS011;57064;52.046;4.800;2023-04-12T05:45:03;16.25;;;5.40;;
69789;SDS011;57064;52.046;4.800;2023-04-12T05:47:30;16.52;;;6.20;;
69789;SDS011;57064;52.046;4.800;2023-04-12T05:49:56;13.55;;;5.55;;
69789;SDS011;57064;52.046;4.800;2023-04-12T05:52:22;12.30;;;6.35;;
69789;SDS011;57064;52.046;4.800;2023-04-12T05:54:48;12.50;;;6.45;;
69789;SDS011;57064;52.046;4.800;2023-04-12T05:57:16;15.55;;;6.72;;
69789;SDS011;57064;52.046;4.800;2023-04-12T05:59:42;13.38;;;6.30;;
69789;SDS011;57064;52.046;4.800;2023-04-12T06:02:09;16.77;;;6.72;;
69789;SDS011;57064;52.046;4.800;2023-04-12T06:04:35;16.85;;;6.30;;
69789;SDS011;57064;52.046;4.800;2023-04-12T06:07:04;14.07;;;5.50;;
69789;SDS011;57064;52.046;4.800;2023-04-12T06:09:30;15.52;;;7.22;;
69789;SDS011;57064;52.046;4.800;2023-04-12T06:11:57;11.60;;;5.60;;
69789;SDS011;57064;52.046;4.800;2023-04-12T06:14:23;13.70;;;5.82;;
69789;SDS011;57064;52.046;4.800;2023-04-12T06:16:49;8.82;;;4.90;;
69789;SDS011;57064;52.046;4.800;2023-04-12T06:19:15;16.67;;;6.30;;
69789;SDS011;57064;52.046;4.800;2023-04-12T06:21:41;16.10;;;6.68;;
69789;SDS011;57064;52.046;4.800;2023-04-12T06:24:07;11.85;;;5.40;;
69789;SDS011;57064;52.046;4.800;2023-04-12T06:26:34;15.07;;;5.70;;
69789;SDS011;57064;52.046;4.800;2023-04-12T06:29:00;17.02;;;6.03;;
69789;SDS011;57064;52.046;4.800;2023-04-12T06:31:26;13.73;;;5.43;;
69789;SDS011;57064;52.046;4.800;2023-04-12T06:33:52;11.95;;;5.80;;
69789;SDS011;57064;52.046;4.800;2023-04-12T06:36:18;19.38;;;6.10;;
69789;SDS011;57064;52.046;4.800;2023-04-12T06:38:44;18.35;;;5.90;;
69789;SDS011;57064;52.046;4.800;2023-04-12T06:41:10;12.70;;;4.97;;
69789;SDS011;57064;52.046;4.800;2023-04-12T06:43:36;16.48;;;5.40;;
69789;SDS011;57064;52.046;4.800;2023-04-12T06:46:02;14.52;;;4.43;;
69789;SDS011;57064;52.046;4.800;2023-04-12T06:48:29;14.68;;;4.20;;
69789;SDS011;57064;52.046;4.800;2023-04-12T06:50:55;15.20;;;4.45;;
69789;SDS011;57064;52.046;4.800;2023-04-12T06:53:21;10.88;;;3.85;;
69789;SDS011;57064;52.046;4.800;2023-04-12T06:55:47;17.60;;;4.20;;
69789;SDS011;57064;52.046;4.800;2023-04-12T06:58:13;17.85;;;3.85;;
69789;SDS011;57064;52.046;4.800;2023-04-12T07:00:39;13.02;;;3.22;;
69789;SDS011;57064;52.046;4.800;2023-04-12T07:03:05;24.00;;;4.40;;
69789;SDS011;57064;52.046;4.800;2023-04-12T07:05:32;19.17;;;3.53;;
69789;SDS011;57064;52.046;4.800;2023-04-12T07:08:02;20.77;;;4.57;;
69789;SDS011;57064;52.046;4.800;2023-04-12T07:10:28;19.23;;;3.67;;
69789;SDS011;57064;52.046;4.800;2023-04-12T07:12:54;19.17;;;2.95;;
69789;SDS011;57064;52.046;4.800;2023-04-12T07:15:23;14.88;;;2.97;;
69789;SDS011;57064;52.046;4.800;2023-04-12T07:17:49;18.10;;;2.30;;
69789;SDS011;57064;52.046;4.800;2023-04-12T07:20:15;18.60;;;2.70;;
69789;SDS011;57064;52.046;4.800;2023-04-12T07:22:41;24.70;;;5.07;;
69789;SDS011;57064;52.046;4.800;2023-04-12T07:25:08;17.88;;;3.88;;
69789;SDS011;57064;52.046;4.800;2023-04-12T07:27:35;9.20;;;2.72;;
69789;SDS011;57064;52.046;4.800;2023-04-12T07:30:01;15.88;;;2.63;;
69789;SDS011;57064;52.046;4.800;2023-04-12T07:32:27;16.95;;;2.40;;
69789;SDS011;57064;52.046;4.800;2023-04-12T07:34:53;21.73;;;4.60;;
69789;SDS011;57064;52.046;4.800;2023-04-12T07:37:19;12.35;;;2.60;;
69789;SDS011;57064;52.046;4.800;2023-04-12T07:39:45;13.25;;;2.83;;
69789;SDS011;57064;52.046;4.800;2023-04-12T07:42:11;15.98;;;2.72;;
69789;SDS011;57064;52.046;4.800;2023-04-12T07:44:37;12.63;;;2.60;;
69789;SDS011;57064;52.046;4.800;2023-04-12T07:47:03;16.33;;;2.30;;
69789;SDS011;57064;52.046;4.800;2023-04-12T07:49:31;18.13;;;3.47;;
69789;SDS011;57064;52.046;4.800;2023-04-12T07:51:58;18.20;;;2.80;;
69789;SDS011;57064;52.046;4.800;2023-04-12T07:54:26;14.82;;;2.22;;
69789;SDS011;57064;52.046;4.800;2023-04-12T07:56:59;12.60;;;2.97;;
69789;SDS011;57064;52.046;4.800;2023-04-12T07:59:27;26.80;;;2.88;;
69789;SDS011;57064;52.046;4.800;2023-04-12T08:01:54;20.90;;;3.10;;
69789;SDS011;57064;52.046;4.800;2023-04-12T08:04:20;17.85;;;2.67;;
69789;SDS011;57064;52.046;4.800;2023-04-12T08:06:46;11.18;;;2.58;;
69789;SDS011;57064;52.046;4.800;2023-04-12T08:09:12;9.48;;;2.28;;
69789;SDS011;57064;52.046;4.800;2023-04-12T08:11:38;12.55;;;2.78;;
69789;SDS011;57064;52.046;4.800;2023-04-12T08:14:04;13.93;;;1.98;;
69789;SDS011;57064;52.046;4.800;2023-04-12T08:16:30;17.88;;;3.55;;
69789;SDS011;57064;52.046;4.800;2023-04-12T08:18:57;13.13;;;2.75;;
69789;SDS011;57064;52.046;4.800;2023-04-12T08:21:23;12.13;;;2.05;;
69789;SDS011;57064;52.046;4.800;2023-04-12T08:23:49;15.77;;;1.92;;
69789;SDS011;57064;52.046;4.800;2023-04-12T08:26:15;19.40;;;3.13;;
69789;SDS011;57064;52.046;4.800;2023-04-12T08:28:41;17.27;;;2.22;;
69789;SDS011;57064;52.046;4.800;2023-04-12T08:31:08;12.18;;;1.92;;
69789;SDS011;57064;52.046;4.800;2023-04-12T08:33:35;10.00;;;1.80;;
69789;SDS011;57064;52.046;4.800;2023-04-12T08:36:01;17.92;;;2.83;;
69789;SDS011;57064;52.046;4.800;2023-04-12T08:38:27;8.82;;;1.95;;
69789;SDS011;57064;52.046;4.800;2023-04-12T08:40:53;14.95;;;2.20;;
69789;SDS011;57064;52.046;4.800;2023-04-12T08:43:21;15.70;;;2.20;;
69789;SDS011;57064;52.046;4.800;2023-04-12T08:45:52;7.70;;;1.63;;
69789;SDS011;57064;52.046;4.800;2023-04-12T08:48:19;9.35;;;2.55;;
69789;SDS011;57064;52.046;4.800;2023-04-12T08:50:46;11.43;;;1.67;;
69789;SDS011;57064;52.046;4.800;2023-04-12T08:53:13;12.77;;;2.53;;
69789;SDS011;57064;52.046;4.800;2023-04-12T08:55:43;10.45;;;1.95;;
69789;SDS011;57064;52.046;4.800;2023-04-12T08:58:09;12.77;;;1.90;;
69789;SDS011;57064;52.046;4.800;2023-04-12T09:00:39;11.60;;;1.80;;
69789;SDS011;57064;52.046;4.800;2023-04-12T09:03:06;9.90;;;1.80;;
69789;SDS011;57064;52.046;4.800;2023-04-12T09:05:34;11.85;;;2.15;;
69789;SDS011;57064;52.046;4.800;2023-04-12T09:08:01;9.10;;;2.20;;
69789;SDS011;57064;52.046;4.800;2023-04-12T09:10:31;17.33;;;2.13;;
69789;SDS011;57064;52.046;4.800;2023-04-12T09:13:00;16.13;;;3.05;;
69789;SDS011;57064;52.046;4.800;2023-04-12T09:15:27;7.28;;;1.70;;
69789;SDS011;57064;52.046;4.800;2023-04-12T09:18:07;13.05;;;2.95;;
69789;SDS011;57064;52.046;4.800;2023-04-12T09:20:35;14.77;;;2.47;;
69789;SDS011;57064;52.046;4.800;2023-04-12T09:25:48;10.43;;;2.08;;
69789;SDS011;57064;52.046;4.800;2023-04-12T09:28:21;10.63;;;1.80;;
69789;SDS011;57064;52.046;4.800;2023-04-12T09:30:50;12.20;;;1.70;;
69789;SDS011;57064;52.046;4.800;2023-04-12T09:33:17;14.07;;;1.92;;
69789;SDS011;57064;52.046;4.800;2023-04-12T09:35:48;15.07;;;2.33;;
69789;SDS011;57064;52.046;4.800;2023-04-12T09:38:15;9.90;;;2.42;;
69789;SDS011;57064;52.046;4.800;2023-04-12T09:40:41;14.10;;;1.70;;
69789;SDS011;57064;52.046;4.800;2023-04-12T09:43:08;17.58;;;2.55;;
69789;SDS011;57064;52.046;4.800;2023-04-12T09:45:35;11.55;;;2.00;;
69789;SDS011;57064;52.046;4.800;2023-04-12T09:48:03;15.77;;;2.55;;
69789;SDS011;57064;52.046;4.800;2023-04-12T09:50:30;15.07;;;2.78;;
69789;SDS011;57064;52.046;4.800;2023-04-12T09:52:57;13.68;;;2.88;;
69789;SDS011;57064;52.046;4.800;2023-04-12T09:55:28;13.60;;;2.35;;
69789;SDS011;57064;52.046;4.800;2023-04-12T09:58:00;8.98;;;2.25;;
69789;SDS011;57064;52.046;4.800;2023-04-12T10:00:27;12.63;;;2.70;;
69789;SDS011;57064;52.046;4.800;2023-04-12T10:02:55;10.18;;;2.30;;
69789;SDS011;57064;52.046;4.800;2023-04-12T10:05:22;17.67;;;2.58;;
69789;SDS011;57064;52.046;4.800;2023-04-12T10:07:50;12.85;;;1.92;;
69789;SDS011;57064;52.046;4.800;2023-04-12T10:10:17;18.77;;;3.08;;
69789;SDS011;57064;52.046;4.800;2023-04-12T10:12:46;13.63;;;2.53;;
69789;SDS011;57064;52.046;4.800;2023-04-12T10:15:13;17.83;;;2.70;;
69789;SDS011;57064;52.046;4.800;2023-04-12T10:17:45;11.20;;;1.88;;
69789;SDS011;57064;52.046;4.800;2023-04-12T10:20:13;9.05;;;1.98;;
69789;SDS011;57064;52.046;4.800;2023-04-12T10:22:41;11.52;;;2.80;;
69789;SDS011;57064;52.046;4.800;2023-04-12T10:25:14;11.00;;;2.00;;
69789;SDS011;57064;52.046;4.800;2023-04-12T10:27:42;7.88;;;1.70;;
69789;SDS011;57064;52.046;4.800;2023-04-12T10:30:19;10.65;;;2.25;;
69789;SDS011;57064;52.046;4.800;2023-04-12T10:38:24;6.50;;;1.48;;
69789;SDS011;57064;52.046;4.800;2023-04-12T10:41:11;4.70;;;1.20;;
69789;SDS011;57064;52.046;4.800;2023-04-12T10:43:44;8.95;;;2.40;;
69789;SDS011;57064;52.046;4.800;2023-04-12T10:49:08;7.18;;;1.92;;
69789;SDS011;57064;52.046;4.800;2023-04-12T10:51:35;14.50;;;2.95;;
69789;SDS011;57064;52.046;4.800;2023-04-12T10:56:41;13.20;;;2.03;;
69789;SDS011;57064;52.046;4.800;2023-04-12T10:59:08;13.85;;;1.85;;
69789;SDS011;57064;52.046;4.800;2023-04-12T11:01:39;11.00;;;2.47;;
69789;SDS011;57064;52.046;4.800;2023-04-12T11:14:35;6.40;;;1.25;;
69789;SDS011;57064;52.046;4.800;2023-04-12T11:22:22;8.20;;;1.38;;
69789;SDS011;57064;52.046;4.800;2023-04-12T11:24:53;6.40;;;1.10;;
69789;SDS011;57064;52.046;4.800;2023-04-12T11:27:21;7.63;;;1.27;;
69789;SDS011;57064;52.046;4.800;2023-04-12T11:29:56;7.15;;;1.05;;
69789;SDS011;57064;52.046;4.800;2023-04-12T11:32:25;3.50;;;1.10;;
69789;SDS011;57064;52.046;4.800;2023-04-12T11:34:53;8.63;;;1.33;;
69789;SDS011;57064;52.046;4.800;2023-04-12T11:37:20;5.82;;;1.00;;
69789;SDS011;57064;52.046;4.800;2023-04-12T11:39:51;6.45;;;1.15;;
69789;SDS011;57064;52.046;4.800;2023-04-12T11:42:21;10.20;;;1.75;;
69789;SDS011;57064;52.046;4.800;2023-04-12T11:44:48;5.43;;;1.30;;
69789;SDS011;57064;52.046;4.800;2023-04-12T11:47:19;5.82;;;1.27;;
69789;SDS011;57064;52.046;4.800;2023-04-12T11:49:56;4.28;;;1.08;;
69789;SDS011;57064;52.046;4.800;2023-04-12T11:52:30;5.82;;;1.75;;
69789;SDS011;57064;52.046;4.800;2023-04-12T11:55:00;3.97;;;0.85;;
69789;SDS011;57064;52.046;4.800;2023-04-12T11:57:30;5.47;;;0.75;;
69789;SDS011;57064;52.046;4.800;2023-04-12T11:59:58;4.55;;;0.70;;
69789;SDS011;57064;52.046;4.800;2023-04-12T12:02:25;12.02;;;1.25;;
69789;SDS011;57064;52.046;4.800;2023-04-12T12:04:51;7.20;;;1.45;;
69789;SDS011;57064;52.046;4.800;2023-04-12T12:07:19;4.85;;;1.02;;
69789;SDS011;57064;52.046;4.800;2023-04-12T12:09:46;4.95;;;0.90;;
69789;SDS011;57064;52.046;4.800;2023-04-12T12:12:14;5.53;;;0.90;;
69789;SDS011;57064;52.046;4.800;2023-04-12T12:14:42;5.07;;;1.00;;
69789;SDS011;57064;52.046;4.800;2023-04-12T12:17:12;4.95;;;0.90;;
69789;SDS011;57064;52.046;4.800;2023-04-12T12:19:40;7.72;;;0.93;;
69789;SDS011;57064;52.046;4.800;2023-04-12T12:22:10;3.53;;;0.90;;
69789;SDS011;57064;52.046;4.800;2023-04-12T12:24:37;3.10;;;0.80;;
69789;SDS011;57064;52.046;4.800;2023-04-12T12:27:08;3.28;;;0.88;;
69789;SDS011;57064;52.046;4.800;2023-04-12T12:29:35;4.97;;;0.75;;
69789;SDS011;57064;52.046;4.800;2023-04-12T12:32:08;4.00;;;0.60;;
69789;SDS011;57064;52.046;4.800;2023-04-12T12:34:38;3.97;;;1.10;;
69789;SDS011;57064;52.046;4.800;2023-04-12T12:37:11;5.45;;;0.95;;
69789;SDS011;57064;52.046;4.800;2023-04-12T12:39:37;3.58;;;0.68;;
69789;SDS011;57064;52.046;4.800;2023-04-12T12:42:04;3.03;;;0.68;;
69789;SDS011;57064;52.046;4.800;2023-04-12T12:44:30;8.10;;;1.25;;
69789;SDS011;57064;52.046;4.800;2023-04-12T12:46:57;7.05;;;1.17;;
69789;SDS011;57064;52.046;4.800;2023-04-12T12:49:25;4.65;;;0.95;;
69789;SDS011;57064;52.046;4.800;2023-04-12T12:51:51;3.85;;;1.20;;
69789;SDS011;57064;52.046;4.800;2023-04-12T12:54:18;2.15;;;0.73;;
69789;SDS011;57064;52.046;4.800;2023-04-12T12:56:46;3.10;;;0.70;;
69789;SDS011;57064;52.046;4.800;2023-04-12T12:59:12;6.72;;;1.08;;
69789;SDS011;57064;52.046;4.800;2023-04-12T13:01:38;7.93;;;1.17;;
69789;SDS011;57064;52.046;4.800;2023-04-12T13:04:04;7.55;;;0.93;;
69789;SDS011;57064;52.046;4.800;2023-04-12T13:06:30;5.72;;;1.25;;
69789;SDS011;57064;52.046;4.800;2023-04-12T13:08:56;5.25;;;1.27;;
69789;SDS011;57064;52.046;4.800;2023-04-12T13:11:22;5.82;;;1.15;;
69789;SDS011;57064;52.046;4.800;2023-04-12T13:13:48;4.43;;;0.90;;
69789;SDS011;57064;52.046;4.800;2023-04-12T13:16:14;4.10;;;0.88;;
69789;SDS011;57064;52.046;4.800;2023-04-12T13:18:41;6.32;;;1.70;;
69789;SDS011;57064;52.046;4.800;2023-04-12T13:21:07;2.92;;;0.80;;
69789;SDS011;57064;52.046;4.800;2023-04-12T13:23:33;5.28;;;1.15;;
69789;SDS011;57064;52.046;4.800;2023-04-12T13:25:59;4.97;;;0.80;;
69789;SDS011;57064;52.046;4.800;2023-04-12T13:28:25;5.65;;;0.80;;
69789;SDS011;57064;52.046;4.800;2023-04-12T13:30:51;3.63;;;0.85;;
69789;SDS011;57064;52.046;4.800;2023-04-12T13:33:17;3.28;;;0.77;;
69789;SDS011;57064;52.046;4.800;2023-04-12T13:35:43;5.03;;;0.70;;
69789;SDS011;57064;52.046;4.800;2023-04-12T13:38:09;3.38;;;0.60;;
69789;SDS011;57064;52.046;4.800;2023-04-12T13:40:35;4.65;;;0.70;;
69789;SDS011;57064;52.046;4.800;2023-04-12T13:43:01;3.28;;;0.85;;
69789;SDS011;57064;52.046;4.800;2023-04-12T13:45:28;5.28;;;0.80;;
69789;SDS011;57064;52.046;4.800;2023-04-12T13:47:54;3.83;;;0.60;;
69789;SDS011;57064;52.046;4.800;2023-04-12T13:50:20;1.45;;;0.40;;
69789;SDS011;57064;52.046;4.800;2023-04-12T13:52:46;2.63;;;0.38;;
69789;SDS011;57064;52.046;4.800;2023-04-12T13:55:12;2.95;;;0.50;;
69789;SDS011;57064;52.046;4.800;2023-04-12T13:57:38;2.78;;;0.70;;
69789;SDS011;57064;52.046;4.800;2023-04-12T14:00:05;1.77;;;0.50;;
69789;SDS011;57064;52.046;4.800;2023-04-12T14:02:31;2.35;;;0.55;;
69789;SDS011;57064;52.046;4.800;2023-04-12T14:04:57;2.67;;;0.52;;
69789;SDS011;57064;52.046;4.800;2023-04-12T14:07:24;1.52;;;0.38;;
69789;SDS011;57064;52.046;4.800;2023-04-12T14:09:53;2.05;;;0.47;;
69789;SDS011;57064;52.046;4.800;2023-04-12T14:12:20;2.28;;;0.75;;
69789;SDS011;57064;52.046;4.800;2023-04-12T14:14:46;1.90;;;0.40;;
69789;SDS011;57064;52.046;4.800;2023-04-12T14:17:12;1.80;;;0.52;;
69789;SDS011;57064;52.046;4.800;2023-04-12T14:19:38;1.45;;;0.60;;
69789;SDS011;57064;52.046;4.800;2023-04-12T14:22:04;2.47;;;0.70;;
69789;SDS011;57064;52.046;4.800;2023-04-12T14:24:30;3.03;;;0.40;;
69789;SDS011;57064;52.046;4.800;2023-04-12T14:26:56;6.93;;;0.65;;
69789;SDS011;57064;52.046;4.800;2023-04-12T14:29:24;1.95;;;0.50;;
69789;SDS011;57064;52.046;4.800;2023-04-12T14:31:51;2.92;;;0.60;;
69789;SDS011;57064;52.046;4.800;2023-04-12T14:34:17;2.10;;;0.55;;
69789;SDS011;57064;52.046;4.800;2023-04-12T14:36:43;2.42;;;0.47;;
69789;SDS011;57064;52.046;4.800;2023-04-12T14:39:09;1.55;;;0.40;;
69789;SDS011;57064;52.046;4.800;2023-04-12T14:41:36;3.38;;;0.77;;
69789;SDS011;57064;52.046;4.800;2023-04-12T14:44:02;1.13;;;0.30;;
69789;SDS011;57064;52.046;4.800;2023-04-12T14:46:28;1.27;;;0.35;;
69789;SDS011;57064;52.046;4.800;2023-04-12T14:48:55;4.97;;;0.82;;
69789;SDS011;57064;52.046;4.800;2023-04-12T14:51:24;3.05;;;0.60;;
69789;SDS011;57064;52.046;4.800;2023-04-12T14:53:52;1.30;;;0.40;;
69789;SDS011;57064;52.046;4.800;2023-04-12T14:56:22;4.75;;;0.55;;
69789;SDS011;57064;52.046;4.800;2023-04-12T14:58:53;2.92;;;0.60;;
69789;SDS011;57064;52.046;4.800;2023-04-12T15:01:20;1.70;;;0.40;;
69789;SDS011;57064;52.046;4.800;2023-04-12T15:03:47;2.25;;;0.60;;
69789;SDS011;57064;52.046;4.800;2023-04-12T15:06:15;1.30;;;0.57;;
69789;SDS011;57064;52.046;4.800;2023-04-12T15:08:42;2.65;;;0.80;;
69789;SDS011;57064;52.046;4.800;2023-04-12T15:11:09;2.22;;;0.50;;
69789;SDS011;57064;52.046;4.800;2023-04-12T15:13:39;4.00;;;0.75;;
69789;SDS011;57064;52.046;4.800;2023-04-12T15:16:06;2.97;;;0.70;;
69789;SDS011;57064;52.046;4.800;2023-04-12T15:18:33;5.28;;;0.73;;
69789;SDS011;57064;52.046;4.800;2023-04-12T15:21:12;4.75;;;0.73;;
69789;SDS011;57064;52.046;4.800;2023-04-12T15:23:39;3.22;;;0.77;;
69789;SDS011;57064;52.046;4.800;2023-04-12T15:26:05;3.42;;;0.77;;